Time;durP1;ratioP1;P1;durP2;ratioP2;P2;SDS_P1;SDS_P2;PMS_P1;PMS_P2;Temp;Humidity;BMP_temperature;BMP_pressure;BME280_temperature;BME280_humidity;BME280_pressure;Samples;Min_cycle;Max_cycle;Signal;HPM_P1;HPM_P2
2022/01/13 00:01:30;;;;;;;;;;;;;;;28.37;50.73;98495.55;615449;230;67188;-65
2022/01/13 00:03:52;;;;;;;;;;;;;;;28.37;50.78;98490.14;615104;230;65042;-65
2022/01/13 00:06:19;;;;;;;;;;;;;;;28.35;50.23;98500.45;615485;230;67335;-65
2022/01/13 00:08:47;;;;;;;;;;;;;;;28.36;50.74;98506.66;615442;229;67108;-65
2022/01/13 00:11:14;;;;;;;;;;;;;;;28.34;51.28;98505.03;615425;230;65043;-65
2022/01/13 00:19:05;;;;;;;;;;;;;;;28.31;50.18;98516.41;615513;230;62905;-66
2022/01/13 00:23:54;;;;;;;;;;;;;;;28.28;52.20;98513.48;615461;230;64730;-66
2022/01/13 00:26:24;;;;;;;;;;;;;;;28.27;51.30;98517.28;615453;230;65860;-66
2022/01/13 00:28:52;;;;;;;;;;;;;;;28.26;51.16;98512.95;615348;230;64771;-67
2022/01/13 00:31:27;;;;;;;;;;;;;;;28.26;51.44;98518.36;615449;230;67132;-66
2022/01/13 00:33:58;;;;;;;;;;;;;;;28.26;51.18;98523.77;615428;230;65155;-66
2022/01/13 00:36:23;;;;;;;;;;;;;;;28.25;49.91;98525.66;615231;228;64678;-66
2022/01/13 00:38:51;;;;;;;;;;;;;;;28.25;52.01;98525.66;615449;228;64668;-66
2022/01/13 00:41:19;;;;;;;;;;;;;;;28.21;49.43;98524.63;615435;230;65047;-66
2022/01/13 00:43:48;;;;;;;;;;;;;;;28.20;51.48;98524.90;615430;230;66746;-67
2022/01/13 00:46:26;;;;;;;;;;;;;;;28.20;51.66;98522.20;615480;230;64772;-66
2022/01/13 00:48:48;;;;;;;;;;;;;;;28.18;52.22;98524.37;615124;230;62897;-68
2022/01/13 00:51:16;;;;;;;;;;;;;;;28.17;50.79;98528.17;615356;229;64851;-67
2022/01/13 00:53:43;;;;;;;;;;;;;;;28.17;50.96;98534.38;615388;230;65097;-67
2022/01/13 00:56:12;;;;;;;;;;;;;;;28.16;49.91;98542.78;615438;230;63098;-67
2022/01/13 00:58:39;;;;;;;;;;;;;;;28.16;49.91;98545.48;615427;230;67125;-67
2022/01/13 01:01:07;;;;;;;;;;;;;;;28.14;50.32;98544.95;615462;230;66893;-66
2022/01/13 01:03:36;;;;;;;;;;;;;;;28.14;52.03;98537.64;615425;230;65081;-66
2022/01/13 01:06:04;;;;;;;;;;;;;;;28.11;51.73;98540.91;615382;230;65075;-66
2022/01/13 01:08:33;;;;;;;;;;;;;;;28.10;51.82;98550.92;615421;230;67000;-66
2022/01/13 01:11:02;;;;;;;;;;;;;;;28.09;51.89;98559.30;615438;230;62778;-66
2022/01/13 01:13:33;;;;;;;;;;;;;;;28.08;51.66;98563.90;615470;230;66822;-65
2022/01/13 01:16:02;;;;;;;;;;;;;;;28.09;51.51;98564.70;615403;230;66985;-65
2022/01/13 01:18:49;;;;;;;;;;;;;;;28.06;51.04;98560.66;615387;230;65041;-65
2022/01/13 01:23:39;;;;;;;;;;;;;;;28.05;50.95;98563.66;615412;230;67050;-65
2022/01/13 01:26:26;;;;;;;;;;;;;;;28.03;51.17;98561.23;615277;230;65909;-65
2022/01/13 01:28:46;;;;;;;;;;;;;;;28.03;50.20;98550.42;614749;230;64882;-65
2022/01/13 01:31:08;;;;;;;;;;;;;;;28.02;49.16;98546.11;615124;230;66871;-65
2022/01/13 01:33:39;;;;;;;;;;;;;;;28.01;50.68;98540.98;615283;230;62986;-65
2022/01/13 01:36:05;;;;;;;;;;;;;;;28.01;52.97;98547.18;615202;230;66570;-65
2022/01/13 01:38:34;;;;;;;;;;;;;;;27.98;51.41;98545.05;615269;230;68648;-65
2022/01/13 01:41:01;;;;;;;;;;;;;;;27.97;50.13;98543.44;615355;230;62907;-65
2022/01/13 01:43:29;;;;;;;;;;;;;;;27.98;51.22;98555.85;615268;230;68832;-65
2022/01/13 01:45:57;;;;;;;;;;;;;;;27.96;52.06;98555.31;615218;230;68485;-65
2022/01/13 01:48:26;;;;;;;;;;;;;;;27.94;49.46;98552.11;615296;230;62990;-65
2022/01/13 01:50:58;;;;;;;;;;;;;;;27.95;50.74;98542.11;615734;229;68837;-66
2022/01/13 01:53:23;;;;;;;;;;;;;;;27.94;50.51;98535.06;618572;229;68605;-66
2022/01/13 01:55:52;;;;;;;;;;;;;;;27.93;49.58;98536.16;618724;229;62873;-66
2022/01/13 01:58:20;;;;;;;;;;;;;;;27.93;50.53;98538.87;618560;228;68660;-66
2022/01/13 02:00:47;;;;;;;;;;;;;;;27.92;50.46;98538.06;618671;229;66402;-66
2022/01/13 02:03:16;;;;;;;;;;;;;;;27.91;50.64;98538.33;618659;227;63038;-66
2022/01/13 02:05:43;;;;;;;;;;;;;;;27.89;53.50;98538.63;618662;229;68545;-66
2022/01/13 02:08:11;;;;;;;;;;;;;;;27.88;51.49;98542.40;618659;229;69926;-66
2022/01/13 02:10:38;;;;;;;;;;;;;;;27.85;50.88;98534.86;618641;229;65183;-66
2022/01/13 02:13:10;;;;;;;;;;;;;;;27.84;50.74;98527.84;618621;229;68778;-66
2022/01/13 02:15:47;;;;;;;;;;;;;;;27.84;52.40;98525.15;618515;229;68613;-66
2022/01/13 02:18:06;;;;;;;;;;;;;;;27.82;50.31;98525.41;618118;229;65112;-66
2022/01/13 02:20:50;;;;;;;;;;;;;;;27.81;50.39;98520.30;618683;227;68855;-66
2022/01/13 02:23:34;;;;;;;;;;;;;;;27.80;50.76;98522.20;618675;229;66302;-66
2022/01/13 02:26:02;;;;;;;;;;;;;;;27.79;51.14;98512.44;618687;229;62980;-65
2022/01/13 02:28:31;;;;;;;;;;;;;;;27.76;52.18;98507.59;618637;227;68530;-65
2022/01/13 02:30:59;;;;;;;;;;;;;;;27.77;52.24;98513.80;618672;229;68647;-66
2022/01/13 02:33:26;;;;;;;;;;;;;;;27.76;50.28;98515.70;618635;229;65018;-65
2022/01/13 02:35:54;;;;;;;;;;;;;;;27.75;51.73;98537.61;618637;229;68981;-65
2022/01/13 02:38:21;;;;;;;;;;;;;;;27.76;52.02;98531.11;618720;229;68686;-65
2022/01/13 02:40:53;;;;;;;;;;;;;;;27.74;50.92;98535.97;618664;227;62902;-65
2022/01/13 02:43:21;;;;;;;;;;;;;;;27.73;51.56;98534.37;618646;229;68613;-65
2022/01/13 02:46:03;;;;;;;;;;;;;;;27.71;50.45;98536.53;618646;229;66495;-65
2022/01/13 02:50:54;;;;;;;;;;;;;;;27.68;51.54;98522.49;618143;229;66675;-65
2022/01/13 02:53:22;;;;;;;;;;;;;;;27.70;52.17;98526.83;615261;230;68709;-66
2022/01/13 02:55:49;;;;;;;;;;;;;;;27.66;51.79;98524.69;615270;230;64982;-65
2022/01/13 02:58:17;;;;;;;;;;;;;;;27.65;50.65;98533.05;615251;230;68784;-65
2022/01/13 03:00:45;;;;;;;;;;;;;;;27.63;52.47;98525.22;615225;230;68709;-65
2022/01/13 03:03:13;;;;;;;;;;;;;;;27.63;53.08;98517.12;615363;230;64997;-65
2022/01/13 03:05:41;;;;;;;;;;;;;;;27.61;52.74;98519.31;615342;230;66581;-65
2022/01/13 03:08:09;;;;;;;;;;;;;;;27.59;50.53;98517.97;615296;230;68888;-65
2022/01/13 03:10:36;;;;;;;;;;;;;;;27.59;52.82;98521.47;615288;230;65045;-65
2022/01/13 03:13:05;;;;;;;;;;;;;;;27.58;53.76;98517.17;615306;230;66592;-65
2022/01/13 03:15:33;;;;;;;;;;;;;;;27.58;53.62;98517.17;615297;230;68519;-65
2022/01/13 03:18:00;;;;;;;;;;;;;;;27.55;54.40;98516.89;615340;230;64898;-65
2022/01/13 03:20:28;;;;;;;;;;;;;;;27.54;52.19;98520.69;615313;230;68685;-65
2022/01/13 03:22:55;;;;;;;;;;;;;;;27.53;51.04;98519.06;615258;230;69135;-65
2022/01/13 03:25:24;;;;;;;;;;;;;;;27.54;53.36;98523.39;615310;228;65092;-64
2022/01/13 03:27:56;;;;;;;;;;;;;;;27.53;51.24;98530.69;615256;230;69353;-65
2022/01/13 03:30:22;;;;;;;;;;;;;;;27.52;52.18;98529.06;615277;230;68782;-65
2022/01/13 03:32:49;;;;;;;;;;;;;;;27.48;50.75;98533.41;615286;230;64925;-65
2022/01/13 03:35:17;;;;;;;;;;;;;;;27.47;53.86;98534.48;615319;230;66333;-65
2022/01/13 03:37:44;;;;;;;;;;;;;;;27.46;52.09;98535.58;615310;230;66572;-65
2022/01/13 03:40:12;;;;;;;;;;;;;;;27.44;52.13;98535.84;615288;230;62721;-65
2022/01/13 03:42:40;;;;;;;;;;;;;;;27.43;51.22;98541.53;615348;228;68536;-65
2022/01/13 03:45:08;;;;;;;;;;;;;;;27.41;52.78;98544.49;615294;230;68797;-65
2022/01/13 03:47:35;;;;;;;;;;;;;;;27.41;55.61;98549.09;615243;230;65053;-65
2022/01/13 03:50:03;;;;;;;;;;;;;;;27.40;54.52;98553.69;615273;228;69021;-65
2022/01/13 03:52:32;;;;;;;;;;;;;;;27.37;52.13;98545.34;618064;229;68540;-65
2022/01/13 03:55:01;;;;;;;;;;;;;;;27.38;53.74;98542.35;618623;229;64962;-64
2022/01/13 03:57:43;;;;;;;;;;;;;;;27.35;51.81;98540.20;608983;229;66493;-64
2022/01/13 04:00:21;;;;;;;;;;;;;;;27.37;54.10;98542.64;608274;229;66358;-65
2022/01/13 04:02:48;;;;;;;;;;;;;;;27.33;53.72;98550.47;618660;227;62886;-65
2022/01/13 04:05:16;;;;;;;;;;;;;;;27.32;52.69;98545.36;618663;229;68510;-65
2022/01/13 04:07:43;;;;;;;;;;;;;;;27.30;53.60;98547.52;618667;229;68762;-65
2022/01/13 04:10:29;;;;;;;;;;;;;;;27.30;55.19;98548.32;618678;229;65188;-65
2022/01/13 04:12:57;;;;;;;;;;;;;;;27.30;54.66;98550.22;618671;229;68608;-65
2022/01/13 04:15:28;;;;;;;;;;;;;;;27.26;54.14;98549.97;618678;229;66654;-65
2022/01/13 04:17:54;;;;;;;;;;;;;;;27.26;54.49;98552.67;618591;227;62895;-65
2022/01/13 04:20:21;;;;;;;;;;;;;;;27.25;57.25;98558.33;618672;229;66390;-65
2022/01/13 04:22:49;;;;;;;;;;;;;;;27.23;53.48;98566.72;618684;229;66581;-65
2022/01/13 04:25:21;;;;;;;;;;;;;;;27.22;54.99;98568.58;618738;229;62853;-65
2022/01/13 04:27:47;;;;;;;;;;;;;;;27.21;54.69;98571.57;618519;229;66553;-64
2022/01/13 04:32:45;;;;;;;;;;;;;;;27.21;55.45;98574.27;618705;229;65099;-66
2022/01/13 04:35:12;;;;;;;;;;;;;;;27.17;52.91;98576.72;618688;229;68475;-65
2022/01/13 04:37:40;;;;;;;;;;;;;;;27.18;54.25;98572.92;618677;229;68698;-65
2022/01/13 04:40:11;;;;;;;;;;;;;;;27.16;56.23;98577.78;618737;229;65043;-66
2022/01/13 04:42:42;;;;;;;;;;;;;;;27.14;54.50;98571.02;618709;229;68537;-66
2022/01/13 04:45:07;;;;;;;;;;;;;;;27.14;54.48;98574.52;618598;229;68411;-66
2022/01/13 04:47:35;;;;;;;;;;;;;;;27.12;54.66;98575.86;618697;229;65108;-66
2022/01/13 04:50:04;;;;;;;;;;;;;;;27.11;53.73;98572.36;618654;229;68541;-66
2022/01/13 04:52:33;;;;;;;;;;;;;;;27.12;54.20;98571.30;615789;229;68706;-66
2022/01/13 04:55:08;;;;;;;;;;;;;;;27.11;54.74;98575.06;615327;228;64886;-66
2022/01/13 04:57:30;;;;;;;;;;;;;;;27.10;54.15;98573.45;614803;230;68471;-66
2022/01/13 04:59:57;;;;;;;;;;;;;;;27.09;55.17;98571.85;615282;230;68170;-67
2022/01/13 05:02:25;;;;;;;;;;;;;;;27.07;54.50;98571.31;615312;230;64980;-67
2022/01/13 05:04:52;;;;;;;;;;;;;;;27.04;54.82;98571.86;615307;230;68821;-65
2022/01/13 05:07:20;;;;;;;;;;;;;;;27.03;54.49;98581.02;615249;230;68288;-65
2022/01/13 05:09:47;;;;;;;;;;;;;;;27.01;55.98;98583.20;615220;230;64826;-65
2022/01/13 05:12:17;;;;;;;;;;;;;;;27.01;54.89;98588.59;615290;228;66532;-65
2022/01/13 05:14:47;;;;;;;;;;;;;;;27.06;55.78;98590.45;615335;230;66606;-65
2022/01/13 05:17:44;;;;;;;;;;;;;;;27.01;54.08;98583.20;615230;230;65163;-64
2022/01/13 05:19:57;;;;;;;;;;;;;;;27.01;54.15;98592.09;614374;228;66391;-64
2022/01/13 05:24:41;;;;;;;;;;;;;;;26.99;54.79;98601.55;615246;230;62723;-65
2022/01/13 05:27:09;;;;;;;;;;;;;;;26.99;54.22;98598.84;615269;230;66343;-65
2022/01/13 05:29:36;;;;;;;;;;;;;;;26.96;54.81;98607.48;615314;230;66471;-65
2022/01/13 05:32:04;;;;;;;;;;;;;;;26.97;55.83;98611.79;615280;228;62844;-64
2022/01/13 05:34:31;;;;;;;;;;;;;;;26.94;54.90;98610.44;615280;230;68896;-64
2022/01/13 05:36:59;;;;;;;;;;;;;;;26.95;54.11;98611.25;615245;228;68473;-64
2022/01/13 05:39:26;;;;;;;;;;;;;;;26.94;54.96;98620.43;615275;230;64886;-65
2022/01/13 05:41:54;;;;;;;;;;;;;;;26.92;54.69;98611.79;615346;230;68819;-64
2022/01/13 05:44:21;;;;;;;;;;;;;;;26.91;54.19;98615.58;615295;230;68330;-64
2022/01/13 05:46:49;;;;;;;;;;;;;;;26.91;54.85;98610.19;615268;230;65004;-64
2022/01/13 05:49:16;;;;;;;;;;;;;;;26.91;55.70;98613.69;615259;230;68844;-65
2022/01/13 05:51:44;;;;;;;;;;;;;;;26.91;59.71;98618.28;615167;229;69036;-64
2022/01/13 05:54:12;;;;;;;;;;;;;;;26.90;54.10;98616.64;615330;230;65215;-64
2022/01/13 05:56:43;;;;;;;;;;;;;;;26.93;56.29;98618.83;615329;230;48964;-64
2022/01/13 05:59:10;;;;;;;;;;;;;;;26.88;55.56;98613.43;615288;230;68711;-65
2022/01/13 06:01:38;;;;;;;;;;;;;;;26.89;54.63;98615.03;615251;230;62658;-65
2022/01/13 06:04:05;;;;;;;;;;;;;;;26.88;55.73;98608.84;615260;228;68763;-65
2022/01/13 06:06:33;;;;;;;;;;;;;;;26.88;57.37;98611.53;615331;230;68549;-66
2022/01/13 06:09:00;;;;;;;;;;;;;;;26.88;55.70;98610.73;615308;230;62657;-65
2022/01/13 06:11:37;;;;;;;;;;;;;;;26.88;56.90;98622.33;615280;230;66241;-66
2022/01/13 06:13:57;;;;;;;;;;;;;;;26.89;55.88;98623.13;614895;230;66680;-66
2022/01/13 06:16:24;;;;;;;;;;;;;;;26.87;56.04;98615.30;615256;228;62945;-66
2022/01/13 06:18:52;;;;;;;;;;;;;;;26.91;56.91;98632.57;615310;228;68839;-66
2022/01/13 06:21:19;;;;;;;;;;;;;;;26.90;56.27;98630.13;615195;230;66392;-66
2022/01/13 06:23:47;;;;;;;;;;;;;;;26.92;54.54;98636.08;615269;230;65013;-66
2022/01/13 06:26:14;;;;;;;;;;;;;;;26.92;55.77;98628.78;615299;230;68814;-66
2022/01/13 06:28:42;;;;;;;;;;;;;;;26.93;53.10;98638.52;615249;230;68708;-67
2022/01/13 06:31:09;;;;;;;;;;;;;;;26.94;54.07;98642.81;615259;230;64991;-66
2022/01/13 06:33:37;;;;;;;;;;;;;;;26.94;54.96;98644.71;615335;230;68864;-66
2022/01/13 06:36:04;;;;;;;;;;;;;;;26.93;54.73;98643.11;615246;230;68579;-66
2022/01/13 06:38:32;;;;;;;;;;;;;;;26.95;52.92;98647.13;615286;230;62777;-66
2022/01/13 06:41:01;;;;;;;;;;;;;;;26.95;55.13;98638.22;615252;230;66567;-66
2022/01/13 06:43:29;;;;;;;;;;;;;;;26.97;57.27;98646.86;615121;230;68732;-66
2022/01/13 06:45:56;;;;;;;;;;;;;;;26.90;52.73;98649.84;615312;230;62900;-66
2022/01/13 06:48:24;;;;;;;;;;;;;;;26.96;53.20;98656.05;615234;230;68791;-66
2022/01/13 06:50:51;;;;;;;;;;;;;;;26.96;52.65;98669.54;615118;229;66504;-66
2022/01/13 06:53:21;;;;;;;;;;;;;;;26.97;54.19;98673.84;615255;228;62747;-66
2022/01/13 06:55:49;;;;;;;;;;;;;;;26.98;54.53;98675.45;615254;230;66800;-66
2022/01/13 06:58:17;;;;;;;;;;;;;;;26.97;55.94;98674.65;615316;230;68644;-65
2022/01/13 07:00:44;;;;;;;;;;;;;;;26.96;55.04;98680.33;615143;230;64701;-66
2022/01/13 07:03:12;;;;;;;;;;;;;;;26.97;53.32;98692.73;615262;228;66634;-65
2022/01/13 07:05:39;;;;;;;;;;;;;;;26.94;52.41;98695.97;614524;228;68957;-64
2022/01/13 07:08:10;;;;;;;;;;;;;;;26.91;52.71;98696.52;615207;230;63017;-66
2022/01/13 07:10:37;;;;;;;;;;;;;;;26.94;53.80;98695.97;615284;230;66553;-64
2022/01/13 07:13:05;;;;;;;;;;;;;;;26.96;52.57;98699.22;615094;230;66549;-68
2022/01/13 07:15:33;;;;;;;;;;;;;;;26.99;53.51;98698.67;615024;230;62732;-67
2022/01/13 07:18:01;;;;;;;;;;;;;;;27.01;53.10;98691.13;615171;230;68549;-65
2022/01/13 07:20:28;;;;;;;;;;;;;;;27.00;52.45;98702.98;615105;230;66660;-66
2022/01/13 07:22:58;;;;;;;;;;;;;;;26.99;53.49;98709.47;615303;230;46932;-66
2022/01/13 07:25:25;;;;;;;;;;;;;;;26.99;52.88;98715.66;615249;230;68083;-68
2022/01/13 07:27:53;;;;;;;;;;;;;;;26.98;52.24;98722.16;615196;230;68693;-66
2022/01/13 07:30:20;;;;;;;;;;;;;;;27.05;52.30;98719.17;618244;228;65087;-68
2022/01/13 07:32:48;;;;;;;;;;;;;;;27.04;53.12;98720.27;619333;229;68813;-65
2022/01/13 07:35:16;;;;;;;;;;;;;;;27.05;51.96;98723.77;619359;229;67403;-65
2022/01/13 07:37:43;;;;;;;;;;;;;;;27.04;52.70;98722.96;619470;229;65057;-64
2022/01/13 07:40:15;;;;;;;;;;;;;;;27.02;52.37;98717.02;619265;229;68614;-64
2022/01/13 07:42:43;;;;;;;;;;;;;;;27.05;51.13;98723.77;619318;229;66649;-64
2022/01/13 07:45:12;;;;;;;;;;;;;;;27.04;51.28;98722.96;619441;226;64876;-64
2022/01/13 07:47:40;;;;;;;;;;;;;;;27.07;50.95;98735.91;619436;229;68641;-64
2022/01/13 07:50:10;;;;;;;;;;;;;;;27.08;51.44;98729.42;619481;226;54684;-65
2022/01/13 07:52:38;;;;;;;;;;;;;;;27.07;52.75;98727.81;618697;229;65143;-64
2022/01/13 07:55:06;;;;;;;;;;;;;;;27.09;52.79;98735.63;618564;229;68565;-66
2022/01/13 07:57:34;;;;;;;;;;;;;;;27.11;53.14;98734.27;618587;227;68481;-65
2022/01/13 08:00:02;;;;;;;;;;;;;;;27.14;51.88;98747.22;618647;227;65106;-65
2022/01/13 08:02:31;;;;;;;;;;;;;;;27.12;52.03;98752.11;618411;228;46855;-65
2022/01/13 08:05:00;;;;;;;;;;;;;;;27.09;51.50;98741.86;618324;229;68789;-66
2022/01/13 08:07:27;;;;;;;;;;;;;;;27.12;51.40;98740.48;617893;229;64989;-65
2022/01/13 08:09:55;;;;;;;;;;;;;;;27.13;50.91;98748.31;618566;229;68734;-65
2022/01/13 08:12:22;;;;;;;;;;;;;;;27.16;51.18;98741.57;618605;229;68254;-65
2022/01/13 08:14:50;;;;;;;;;;;;;;;27.16;51.50;98747.80;618635;229;65132;-65
2022/01/13 08:20:04;;;;;;;;;;;;;;;27.19;50.91;98752.66;618523;229;66818;-65
2022/01/13 08:22:31;;;;;;;;;;;;;;;27.18;52.09;98753.75;618583;229;62949;-65
2022/01/13 08:24:59;;;;;;;;;;;;;;;27.17;50.87;98743.21;618546;229;66614;-65
2022/01/13 08:27:28;;;;;;;;;;;;;;;27.21;50.92;98750.50;618642;229;66539;-65
2022/01/13 08:29:55;;;;;;;;;;;;;;;27.22;50.42;98752.11;618569;229;62686;-65
2022/01/13 08:32:24;;;;;;;;;;;;;;;27.21;51.20;98745.11;618551;229;66547;-67
2022/01/13 08:34:53;;;;;;;;;;;;;;;27.21;50.69;98739.71;618647;229;68645;-66
2022/01/13 08:37:20;;;;;;;;;;;;;;;27.23;50.16;98737.56;618668;229;65054;-62
2022/01/13 08:39:47;;;;;;;;;;;;;;;27.25;50.95;98744.56;618598;229;68257;-63
2022/01/13 08:42:15;;;;;;;;;;;;;;;27.21;52.72;98745.11;618651;229;68357;-61
2022/01/13 08:44:43;;;;;;;;;;;;;;;27.23;50.68;98745.66;618588;229;65106;-61
2022/01/13 08:47:10;;;;;;;;;;;;;;;27.26;51.61;98740.80;618614;227;68579;-65
2022/01/13 08:49:38;;;;;;;;;;;;;;;27.26;52.01;98733.52;618636;229;68380;-66
2022/01/13 08:52:07;;;;;;;;;;;;;;;27.30;52.31;98737.27;617810;229;64961;-67
2022/01/13 08:54:34;;;;;;;;;;;;;;;27.26;52.43;98746.20;617466;229;66290;-68
2022/01/13 08:57:02;;;;;;;;;;;;;;;27.28;52.41;98739.42;617512;229;66349;-70
2022/01/13 08:59:29;;;;;;;;;;;;;;;27.31;51.01;98728.11;617453;229;65006;-66
2022/01/13 09:01:57;;;;;;;;;;;;;;;27.34;50.66;98729.46;617501;229;68591;-68
2022/01/13 09:04:24;;;;;;;;;;;;;;;27.33;51.48;98725.12;617468;229;68694;-68
2022/01/13 09:06:52;;;;;;;;;;;;;;;27.36;52.61;98719.98;617416;229;65029;-70
2022/01/13 09:09:19;;;;;;;;;;;;;;;27.39;52.47;98719.47;617513;229;68609;-68
2022/01/13 09:11:47;;;;;;;;;;;;;;;27.34;51.86;98721.37;617467;227;66315;-68
2022/01/13 09:14:16;;;;;;;;;;;;;;;27.34;51.36;98726.77;617424;229;62710;-67
2022/01/13 09:16:46;;;;;;;;;;;;;;;27.38;51.82;98733.22;617477;229;68794;-66
2022/01/13 09:19:14;;;;;;;;;;;;;;;27.39;52.54;98727.56;617453;228;68621;-66
2022/01/13 09:21:43;;;;;;;;;;;;;;;27.40;52.32;98723.77;617396;229;65824;-65
2022/01/13 09:24:11;;;;;;;;;;;;;;;27.42;55.65;98720.81;617490;229;68805;-64
2022/01/13 09:26:39;;;;;;;;;;;;;;;27.42;54.03;98710.02;617452;229;66187;-65
2022/01/13 09:29:08;;;;;;;;;;;;;;;27.44;55.18;98703.23;617415;229;64862;-66
2022/01/13 09:31:36;;;;;;;;;;;;;;;27.43;52.51;98692.72;617504;229;68859;-65
2022/01/13 09:34:05;;;;;;;;;;;;;;;27.44;52.11;98688.93;617488;229;66899;-66
2022/01/13 09:36:34;;;;;;;;;;;;;;;27.44;52.20;98686.23;617432;229;65126;-65
2022/01/13 09:39:03;;;;;;;;;;;;;;;27.44;53.18;98687.03;617512;229;66325;-66
2022/01/13 09:41:32;;;;;;;;;;;;;;;27.46;53.19;98681.38;617427;229;68495;-66
2022/01/13 09:44:02;;;;;;;;;;;;;;;27.46;51.64;98675.97;617374;228;42162;-69
2022/01/13 09:46:30;;;;;;;;;;;;;;;27.45;51.99;98667.07;617468;229;68894;-67
2022/01/13 09:49:02;;;;;;;;;;;;;;;27.46;53.48;98659.77;617464;229;68736;-68
2022/01/13 09:51:27;;;;;;;;;;;;;;;27.44;51.41;98646.53;617420;228;65073;-66
2022/01/13 09:53:55;;;;;;;;;;;;;;;27.47;53.69;98637.08;617512;229;68460;-65
2022/01/13 09:56:22;;;;;;;;;;;;;;;27.50;55.16;98628.45;617430;229;68731;-66
2022/01/13 09:58:50;;;;;;;;;;;;;;;27.54;53.50;98634.11;617452;229;65008;-65
2022/01/13 10:01:18;;;;;;;;;;;;;;;27.56;54.75;98626.55;617502;229;68960;-65
2022/01/13 10:03:45;;;;;;;;;;;;;;;27.57;55.52;98626.25;617436;229;68796;-66
2022/01/13 10:06:15;;;;;;;;;;;;;;;27.54;54.75;98616.00;617466;229;64886;-65
2022/01/13 10:08:52;;;;;;;;;;;;;;;27.59;55.34;98602.48;617442;229;68763;-64
2022/01/13 10:11:35;;;;;;;;;;;;;;;27.56;54.99;98597.64;617386;229;66458;-65
2022/01/13 10:14:03;;;;;;;;;;;;;;;27.58;54.02;98592.78;617453;229;62720;-65
2022/01/13 10:16:31;;;;;;;;;;;;;;;27.61;54.36;98575.19;617409;229;68824;-65
2022/01/13 10:18:59;;;;;;;;;;;;;;;27.59;54.95;98569.28;617500;229;68671;-64
2022/01/13 10:21:27;;;;;;;;;;;;;;;27.60;53.69;98558.19;617483;229;64889;-64
2022/01/13 10:24:12;;;;;;;;;;;;;;;27.62;54.90;98553.32;617450;229;66646;-65
2022/01/13 10:26:34;;;;;;;;;;;;;;;27.57;54.98;98553.34;617045;228;68627;-68
2022/01/13 10:29:04;;;;;;;;;;;;;;;27.60;54.50;98555.48;617481;229;64916;-66
2022/01/13 10:31:42;;;;;;;;;;;;;;;27.61;55.81;98554.42;617458;229;66573;-65
2022/01/13 10:34:16;;;;;;;;;;;;;;;27.62;55.33;98550.63;617338;228;68420;-66
2022/01/13 10:37:01;;;;;;;;;;;;;;;27.61;54.72;98534.68;617451;229;65182;-66
2022/01/13 10:39:51;;;;;;;;;;;;;;;27.62;52.86;98533.61;617464;229;68731;-66
2022/01/13 10:42:45;;;;;;;;;;;;;;;27.60;53.89;98525.78;617507;229;68544;-66
2022/01/13 10:44:54;;;;;;;;;;;;;;;27.58;52.83;98514.47;616178;229;63101;-65
2022/01/13 10:47:21;;;;;;;;;;;;;;;27.60;54.45;98503.38;618180;227;68627;-65
2022/01/13 10:49:50;;;;;;;;;;;;;;;27.57;52.29;98502.03;620597;227;70779;-65
2022/01/13 10:52:23;;;;;;;;;;;;;;;27.57;53.91;98510.13;622843;227;65063;-67
2022/01/13 10:54:47;;;;;;;;;;;;;;;27.57;52.22;98510.13;622420;228;68572;-66
2022/01/13 10:57:16;;;;;;;;;;;;;;;27.58;51.99;98503.67;622585;228;66719;-66
2022/01/13 10:59:44;;;;;;;;;;;;;;;27.55;52.50;98496.09;625003;226;62933;-66
2022/01/13 11:02:11;;;;;;;;;;;;;;;27.51;54.31;98499.66;626486;226;66622;-66
2022/01/13 11:04:39;;;;;;;;;;;;;;;27.52;53.63;98512.86;626435;226;66584;-66
2022/01/13 11:07:14;;;;;;;;;;;;;;;27.57;54.23;98520.94;626426;226;63098;-67
2022/01/13 11:09:43;;;;;;;;;;;;;;;27.57;54.85;98525.53;626438;226;68659;-65
2022/01/13 11:12:13;;;;;;;;;;;;;;;27.57;54.05;98536.34;626485;226;68700;-66
2022/01/13 11:14:45;;;;;;;;;;;;;;;27.56;53.17;98534.73;626404;226;62899;-68
2022/01/13 11:17:12;;;;;;;;;;;;;;;27.56;55.62;98532.84;626461;226;66767;-66
2022/01/13 11:19:41;;;;;;;;;;;;;;;27.56;54.08;98532.03;626480;226;66650;-68
2022/01/13 11:22:10;;;;;;;;;;;;;;;27.54;52.71;98531.49;626411;226;65131;-68
2022/01/13 11:24:38;;;;;;;;;;;;;;;27.53;53.44;98540.66;626459;226;68653;-68
2022/01/13 11:27:06;;;;;;;;;;;;;;;27.55;52.69;98544.70;626546;226;68622;-68
2022/01/13 11:29:34;;;;;;;;;;;;;;;27.58;53.65;98538.77;626512;226;65070;-68
2022/01/13 11:32:02;;;;;;;;;;;;;;;27.58;54.31;98541.47;626496;226;68920;-68
2022/01/13 11:34:30;;;;;;;;;;;;;;;27.59;53.06;98543.08;626392;226;68785;-68
2022/01/13 11:36:58;;;;;;;;;;;;;;;27.60;52.95;98547.38;626441;226;64778;-68
2022/01/13 11:39:38;;;;;;;;;;;;;;;27.61;51.89;98545.48;626387;226;68606;-68
2022/01/13 11:42:08;;;;;;;;;;;;;;;27.62;54.11;98550.63;626564;226;68622;-68
2022/01/13 11:44:36;;;;;;;;;;;;;;;27.64;53.23;98563.86;626402;226;64980;-68
2022/01/13 11:47:08;;;;;;;;;;;;;;;27.63;53.80;98565.73;624913;226;68628;-68
2022/01/13 11:49:42;;;;;;;;;;;;;;;27.64;52.31;98570.06;626394;225;68835;-65
2022/01/13 11:52:12;;;;;;;;;;;;;;;27.64;53.50;98582.77;625635;225;65032;-65
2022/01/13 11:54:35;;;;;;;;;;;;;;;27.65;54.28;98582.47;625457;226;68609;-66
2022/01/13 11:57:04;;;;;;;;;;;;;;;27.66;53.74;98578.70;625640;226;68405;-67
2022/01/13 11:59:32;;;;;;;;;;;;;;;27.66;54.57;98561.66;624952;226;64985;-66
2022/01/13 12:02:00;;;;;;;;;;;;;;;27.66;54.17;98557.09;625788;226;68652;-66
2022/01/13 12:04:28;;;;;;;;;;;;;;;27.66;54.86;98542.77;624950;226;68869;-66
2022/01/13 12:06:55;;;;;;;;;;;;;;;27.65;53.99;98539.26;625665;226;65047;-65
2022/01/13 12:09:25;;;;;;;;;;;;;;;27.65;53.91;98539.26;625800;226;68642;-65
2022/01/13 12:11:55;;;;;;;;;;;;;;;27.68;54.93;98527.89;625661;226;66513;-66
2022/01/13 12:14:28;;;;;;;;;;;;;;;27.66;53.82;98513.05;625721;226;62957;-66
2022/01/13 12:17:03;;;;;;;;;;;;;;;27.66;53.91;98511.19;625672;226;68891;-66
2022/01/13 12:19:41;;;;;;;;;;;;;;;27.67;54.00;98509.28;620308;226;68705;-66
2022/01/13 12:22:35;;;;;;;;;;;;;;;27.68;53.45;98516.29;618652;229;62975;-66
2022/01/13 12:24:55;;;;;;;;;;;;;;;27.66;54.40;98530.09;618308;228;66215;-66
2022/01/13 12:27:27;;;;;;;;;;;;;;;27.67;54.31;98542.50;618568;229;66432;-67
2022/01/13 12:30:12;;;;;;;;;;;;;;;27.66;54.62;98535.49;618078;228;65022;-69
2022/01/13 12:32:43;;;;;;;;;;;;;;;27.63;54.40;98538.72;618420;229;66393;-66
2022/01/13 12:35:13;;;;;;;;;;;;;;;27.65;54.21;98528.45;618592;229;68707;-65
2022/01/13 12:37:40;;;;;;;;;;;;;;;27.66;54.84;98521.98;618614;229;65238;-67
2022/01/13 12:40:13;;;;;;;;;;;;;;;27.63;54.17;98521.72;618519;229;68829;-64
2022/01/13 12:42:49;;;;;;;;;;;;;;;27.63;54.09;98529.81;618589;229;68848;-64
2022/01/13 12:45:31;;;;;;;;;;;;;;;27.64;54.55;98534.95;618412;228;65115;-65
2022/01/13 12:48:03;;;;;;;;;;;;;;;27.66;54.67;98527.39;618572;229;65979;-66
2022/01/13 12:50:32;;;;;;;;;;;;;;;27.67;54.29;98523.59;618075;228;65813;-66
2022/01/13 12:53:01;;;;;;;;;;;;;;;27.67;54.85;98528.19;618596;229;63661;-67
2022/01/13 12:55:29;;;;;;;;;;;;;;;27.64;54.07;98532.25;617831;229;66201;-68
2022/01/13 12:57:56;;;;;;;;;;;;;;;27.65;54.14;98522.25;618681;229;66320;-66
2022/01/13 13:00:25;;;;;;;;;;;;;;;27.66;54.78;98507.66;618622;229;65014;-75
2022/01/13 13:02:54;;;;;;;;;;;;;;;27.54;49.04;98505.30;618468;229;68505;-67
2022/01/13 13:05:29;;;;;;;;;;;;;;;27.74;52.97;98503.56;618531;228;68326;-68
2022/01/13 13:07:57;;;;;;;;;;;;;;;27.73;52.40;98502.77;618479;228;62745;-69
2022/01/13 13:10:25;;;;;;;;;;;;;;;27.70;52.42;98526.83;618614;229;68508;-67
2022/01/13 13:12:53;;;;;;;;;;;;;;;27.68;52.91;98527.09;618571;229;68443;-69
2022/01/13 13:17:51;;;;;;;;;;;;;;;27.75;53.09;98535.70;618576;229;66380;-69
2022/01/13 13:20:25;;;;;;;;;;;;;;;27.72;52.76;98540.84;618672;228;48862;-70